Nearby METAR Reports

 

KSEE - San Diego/Santee, California, USA
Distance from station: E 4mi, 6km
Updated: Sat, 11-Jul-2020 2:47pm PDT
Clear
Clear
 Wind from WNW
Wind: WNW 12 mph , 19 km/h
Temperature: 95°F , 35°C
Dew Point: 48°F , 9°C
Humidity: 20%
Barometer: 29.94 inHg , 1013.9 hPa
Clouds: Clear
Visibility: 10 miles , 16 km
2020/07/11 21:47 KSEE 112147Z 30010KT 10SM SKC 35/09 A2994
KMYF - San Diego/Mntgmy, California, USA
Distance from station: W 6mi, 10km
Updated: Sat, 11-Jul-2020 2:53pm PDT
Clear
Clear
 Wind from WNW
Wind: WNW 9 mph , 15 km/h
Temperature: 88°F , 31°C
Dew Point: 59°F , 15°C
Humidity: 38%
Barometer: 29.96 inHg , 1014.6 hPa
Clouds: Clear
Visibility: 10 miles , 16 km
2020/07/11 21:53 KMYF 112153Z 30008KT 10SM CLR 31/15 A2996 RMK AO2 SLP140 T03110150
 
KNKX - Miramar Nas/San, California, USA
Distance from station: WNW 7mi, 11km
Updated: Sat, 11-Jul-2020 2:55pm PDT
Clear
Clear
 Wind from W
Wind: W 13 mph , 20 km/h
Temperature: 88°F , 31°C
Dew Point: 59°F , 15°C
Humidity: 38%
Barometer: 29.96 inHg , 1014.6 hPa
Clouds: Clear
Visibility: 10 miles , 16 km
2020/07/11 21:55 KNKX 112155Z 28011KT 10SM CLR 31/15 A2996 RMK AO2 SLP139 T03060150 $
KSAN - San Diego, California, USA
Distance from station: WSW 11mi, 17km
Updated: Sat, 11-Jul-2020 2:51pm PDT
Mostly cloudy
Mostly cloudy
 Wind from W
Wind: W 15 mph , 24 km/h
Temperature: 79°F , 26°C
Dew Point: 66°F , 19°C
Humidity: 65%
Barometer: 29.97 inHg , 1014.9 hPa
Clouds: Mostly cloudy
Visibility: 10 miles , 16 km
Cloud details: Few Clouds 900 ft
Partly cloudy 16000 ft
Mostly cloudy 25000 ft
2020/07/11 21:51 KSAN 112151Z 28013KT 10SM FEW009 SCT160 BKN250 26/19 A2997 RMK AO2 SLP149 T02610194
 
KNZY - North Island Nas, California, USA
Distance from station: SW 13mi, 22km
Updated: Sat, 11-Jul-2020 2:52pm PDT
Mostly cloudy
Mostly cloudy
 Wind from NW
Wind: NW 9 mph , 15 km/h
Temperature: 79°F , 26°C
Dew Point: 66°F , 19°C
Humidity: 65%
Barometer: 29.95 inHg , 1014.2 hPa
Clouds: Mostly cloudy
Visibility: 10 miles , 16 km
Cloud details: Few Clouds 800 ft
Partly cloudy 18000 ft
Mostly cloudy 25000 ft
2020/07/11 21:52 KNZY 112152Z 32008KT 10SM FEW008 SCT180 BKN250 26/19 A2995 RMK AO2 SLP143 T02560194 $
KRNM - Ramona, California, USA
Distance from station: NNE 16mi, 26km
Updated: Sat, 11-Jul-2020 2:53pm PDT
Clear
Clear
 Wind from W
Wind: W 15 mph , 24 km/h, Gust: 22 mph , 35 km/h
Temperature: 99°F , 37°C
Dew Point: 43°F , 6°C
Humidity: 15%
Barometer: 29.98 inHg , 1015.2 hPa
Clouds: Clear
Visibility: 10 miles , 16 km
2020/07/11 21:53 KRNM 112153Z 26013G19KT 10SM CLR 37/06 A2998 RMK AO2 SLP134 T03670056
 
KSDM - San Diego/Brown, California, USA
Distance from station: S 16mi, 26km
Updated: Sat, 11-Jul-2020 2:53pm PDT
Clear
Clear
 Wind from W
Wind: W 10 mph , 17 km/h
Temperature: 82°F , 28°C
Heat Index: 84°F , 29°C
Dew Point: 64°F , 18°C
Humidity: 55%
Barometer: 29.97 inHg , 1014.9 hPa
Clouds: Clear
Visibility: 10 miles , 16 km
2020/07/11 21:53 KSDM 112153Z 28009KT 10SM CLR 28/18 A2997 RMK AO2 SLP144 T02830183 $
KNRS - Imperial Beach, California, USA
Distance from station: SSW 18mi, 29km
Updated: Sat, 11-Jul-2020 2:56pm PDT
Clear
Clear
 
Barometer: 29.98 inHg , 1015.2 hPa
Clouds: Clear
Visibility: 10 miles , 16 km
2020/07/11 21:56 KNRS 112156Z AUTO 10SM CLR A2998 RMK AO2 SLP153 $
 
MMTJ - Tijuana Intl Arp, Mexico
Distance from station: S 20mi, 32km
Updated: Sat, 11-Jul-2020 2:42pm PDT
Partly cloudy
Partly cloudy
 Wind from W
Wind: W 10 mph , 17 km/h
Temperature: 82°F , 28°C
Heat Index: 84°F , 29°C
Dew Point: 66°F , 19°C
Humidity: 58%
Barometer: 29.99 inHg , 1015.6 hPa
Clouds: Partly cloudy
Visibility: 8 miles , 13 km
Cloud details: Partly cloudy 15000 ft
Partly cloudy 20000 ft
2020/07/11 21:42 MMTJ 112142Z 28009KT 8SM SCT150 SCT200 28/19 A2999 RMK 8/055 HZY
KCRQ - Carlsbad, California, USA
Distance from station: NW 26mi, 43km
Updated: Sat, 11-Jul-2020 2:53pm PDT
Clear
Clear
 Wind from varies
Wind: varies 5 mph , 7 km/h
Temperature: 79°F , 26°C
Dew Point: 63°F , 17°C
Humidity: 58%
Barometer: 29.96 inHg , 1014.6 hPa
Clouds: Clear
Visibility: 10 miles , 16 km
2020/07/11 21:53 KCRQ 112153Z VRB04KT 10SM CLR 26/17 A2996 RMK AO2 SLP141 T02560167
 
KOKB - Oceanside, California, USA
Distance from station: NW 33mi, 54km
Updated: Sat, 11-Jul-2020 2:52pm PDT
Haze, Clear
Haze, Clear
 Wind from W
Wind: W 10 mph , 17 km/h
Temperature: 81°F , 27°C
Heat Index: 83°F , 28°C
Dew Point: 66°F , 19°C
Humidity: 62%
Barometer: 29.94 inHg , 1013.9 hPa
Summary: Haze
Clouds: Clear
Visibility: 6 miles , 10 km
2020/07/11 21:52 KOKB 112152Z AUTO 27009KT 6SM HZ CLR 27/19 A2994 RMK AO2 SLP139 T02720194
KCZZ - Campo, California, USA
Distance from station: ESE 35mi, 56km
Updated: Sat, 11-Jul-2020 2:52pm PDT

 Wind from WNW
Wind: WNW 14 mph , 22 km/h
Temperature: 100°F , 38°C
Dew Point: 54°F , 12°C
Humidity: 21%
Barometer: 30.00 inHg , 1015.9 hPa
2020/07/11 21:52 KCZZ 112152Z AUTO 29012KT 38/12 A3000 RMK AO1 SLP119 T03780122
 
KNFG - Camp Pendleton, California, USA
Distance from station: NNW 37mi, 59km
Updated: Sat, 11-Jul-2020 2:55pm PDT
Clear
Clear
 Wind from WSW
Wind: WSW 13 mph , 20 km/h
Temperature: 88°F , 31°C
Heat Index: 88°F , 31°C
Dew Point: 61°F , 16°C
Humidity: 40%
Barometer: 29.93 inHg , 1013.5 hPa
Clouds: Clear
Visibility: 10 miles , 16 km
2020/07/11 21:55 KNFG 112155Z 24011KT 10SM CLR 31/16 A2993 RMK AO2 SLP133 T03060156 $
KRIV - Riverside/March, California, USA
Distance from station: N 74mi, 119km
Updated: Sat, 11-Jul-2020 2:58pm PDT
Clear
Clear
 Wind from NW
Wind: NW 10 mph , 17 km/h
Temperature: 104°F , 40°C
Dew Point: 46°F , 8°C
Humidity: 14%
Barometer: 29.97 inHg , 1014.9 hPa
Clouds: Clear
Visibility: 10 miles , 16 km
2020/07/11 21:58 KRIV 112158Z AUTO 31009KT 10SM CLR 40/08 A2997 RMK AO2 SLP131 T04020076
 
KTRM - Thermal/Palm Spg, California, USA
Distance from station: NE 75mi, 121km
Updated: Sat, 11-Jul-2020 2:52pm PDT
Clear
Clear
 Wind from ESE
Wind: ESE 10 mph , 17 km/h
Temperature: 111°F , 44°C
Dew Point: 66°F , 19°C
Humidity: 24%
Barometer: 29.75 inHg , 1007.5 hPa
Clouds: Clear
Visibility: 10 miles , 16 km
2020/07/11 21:52 KTRM 112152Z AUTO 11009KT 10SM CLR 44/19 A2975 RMK AO2 SLP080 T04390194 $
KPSP - Palm Springs, California, USA
Distance from station: NNE 76mi, 122km
Updated: Sat, 11-Jul-2020 2:53pm PDT
Clear
Clear
 Wind from NW
Wind: NW 3 mph , 6 km/h
Temperature: 115°F , 46°C
Dew Point: 52°F , 11°C
Humidity: 13%
Barometer: 29.82 inHg , 1009.8 hPa
Clouds: Clear
Visibility: 10 miles , 16 km
2020/07/11 21:53 KPSP 112153Z 31003KT 10SM CLR 46/11 A2982 RMK AO2 SLP093 T04610106
 
KSNA - Costa Mesa, California, USA
Distance from station: NW 76mi, 123km
Updated: Sat, 11-Jul-2020 2:53pm PDT
Few Clouds
Few Clouds
 Wind from WSW
Wind: WSW 9 mph , 15 km/h
Temperature: 88°F , 31°C
Dew Point: 59°F , 15°C
Humidity: 38%
Barometer: 29.94 inHg , 1013.9 hPa
Clouds: Few Clouds
Visibility: 10 miles , 16 km
Cloud details: Few Clouds 13000 ft
Few Clouds 22000 ft
2020/07/11 21:53 KSNA 112153Z 24008KT 10SM FEW130 FEW220 31/15 A2994 RMK AO2 SLP136 T03060150
KNJK - El Centro Naf, California, USA
Distance from station: E 79mi, 127km
Updated: Sat, 11-Jul-2020 2:56pm PDT
Mostly cloudy
Mostly cloudy
 Wind from SE
Wind: SE 16 mph , 26 km/h
Temperature: 106°F , 41°C
Dew Point: 63°F , 17°C
Humidity: 25%
Barometer: 29.81 inHg , 1009.5 hPa
Clouds: Mostly cloudy
Visibility: 10 miles , 16 km
Cloud details: Mostly cloudy 25000 ft
2020/07/11 21:56 KNJK 112156Z 13014KT 10SM BKN250 41/17 A2981 RMK SLP109 T04060167
 
KAJO - Corona Muni, California, USA
Distance from station: NNW 82mi, 132km
Updated: Sat, 11-Jul-2020 2:56pm PDT
Clear
Clear
 Wind from W
Wind: W 13 mph , 20 km/h, Gust: 20 mph , 31 km/h
Temperature: 102°F , 39°C
Dew Point: 54°F , 12°C
Humidity: 20%
Barometer: 29.92 inHg , 1013.2 hPa
Clouds: Clear
Visibility: 10 miles , 16 km
2020/07/11 21:56 KAJO 112156Z AUTO 26011G17KT 10SM CLR 39/12 A2992 RMK AO2 SLP123 T03890122